createdAt,value
2018-03-24T00:00:26.515Z,94906.77
2018-03-24T00:02:54.070Z,94913.65
2018-03-24T00:05:21.644Z,94910.06
2018-03-24T00:07:49.206Z,94910.13
2018-03-24T00:10:16.758Z,94909.14
2018-03-24T00:12:44.383Z,94914.77
2018-03-24T00:15:11.965Z,94909.30
2018-03-24T00:17:39.522Z,94902.61
2018-03-24T00:20:07.127Z,94898.80
2018-03-24T00:22:34.762Z,94904.36
2018-03-24T00:25:02.330Z,94899.00
2018-03-24T00:27:29.915Z,94902.96
2018-03-24T00:29:57.524Z,94908.44
2018-03-24T00:32:25.112Z,94906.35
2018-03-24T00:34:52.700Z,94904.27
2018-03-24T00:37:20.315Z,94908.84
2018-03-24T00:39:47.889Z,94910.45
2018-03-24T00:42:15.478Z,94914.13
2018-03-24T00:44:43.090Z,94907.48
2018-03-24T00:47:10.671Z,94909.90
2018-03-24T00:49:38.234Z,94909.42
2018-03-24T00:52:05.828Z,94912.05
2018-03-24T00:54:33.410Z,94907.72
2018-03-24T00:57:00.984Z,94904.44
2018-03-24T00:59:28.594Z,94898.66
2018-03-24T01:01:56.222Z,94898.91
2018-03-24T01:04:23.816Z,94906.47
2018-03-24T01:06:51.396Z,94909.30
2018-03-24T01:09:23.648Z,94901.55
2018-03-24T01:11:56.470Z,94900.28
2018-03-24T01:14:31.144Z,94897.58
2018-03-24T01:17:03.624Z,94894.63
2018-03-24T01:19:35.927Z,94901.96
2018-03-24T01:22:08.720Z,94891.48
2018-03-24T01:24:41.251Z,94897.60
2018-03-24T01:27:13.717Z,94894.78
2018-03-24T01:29:41.288Z,94894.91
2018-03-24T01:32:08.831Z,94892.34
2018-03-24T01:34:36.405Z,94894.67
2018-03-24T01:37:04.000Z,94887.03
2018-03-24T01:39:31.570Z,94890.44
2018-03-24T01:41:59.159Z,94879.88
2018-03-24T01:44:26.737Z,94884.28
2018-03-24T01:46:54.311Z,94889.31
2018-03-24T01:49:21.881Z,94884.98
2018-03-24T01:51:49.478Z,94884.91
2018-03-24T01:54:17.042Z,94882.83
2018-03-24T01:56:44.620Z,94879.35
2018-03-24T01:59:12.235Z,94878.67
2018-03-24T02:01:39.846Z,94881.36
2018-03-24T02:04:07.424Z,94873.65
2018-03-24T02:06:34.974Z,94880.48
2018-03-24T02:09:02.990Z,94874.20
2018-03-24T02:11:30.584Z,94875.52
2018-03-24T02:13:58.157Z,94874.41
2018-03-24T02:16:25.756Z,94869.59
2018-03-24T02:18:53.345Z,94869.66
2018-03-24T02:21:20.948Z,94869.65
2018-03-24T02:23:48.497Z,94873.34
2018-03-24T02:26:16.082Z,94874.64
2018-03-24T02:28:43.670Z,94867.98
2018-03-24T02:31:11.274Z,94867.55
2018-03-24T02:33:38.822Z,94870.89
2018-03-24T02:36:06.513Z,94862.65
2018-03-24T02:38:34.084Z,94861.48
2018-03-24T02:41:01.688Z,94866.73
2018-03-24T02:43:29.241Z,94867.94
2018-03-24T02:45:56.814Z,94858.63
2018-03-24T02:48:24.430Z,94860.05
2018-03-24T02:50:52.006Z,94857.55
2018-03-24T02:53:19.568Z,94855.00
2018-03-24T02:55:47.141Z,94850.42
2018-03-24T02:58:14.712Z,94857.67
2018-03-24T03:00:42.331Z,94859.31
2018-03-24T03:03:09.882Z,94855.77
2018-03-24T03:05:37.437Z,94853.73
2018-03-24T03:08:04.996Z,94846.47
2018-03-24T03:10:32.990Z,94850.97
2018-03-24T03:13:00.954Z,94851.31
2018-03-24T03:15:28.875Z,94852.09
2018-03-24T03:17:56.493Z,94847.94
2018-03-24T03:20:24.075Z,94844.75
2018-03-24T03:22:51.660Z,94846.69
2018-03-24T03:25:19.244Z,94842.22
2018-03-24T03:27:46.823Z,94841.21
2018-03-24T03:33:20.751Z,94840.73
2018-03-24T03:35:48.334Z,94848.24
2018-03-24T03:38:15.909Z,94841.85
2018-03-24T03:40:43.476Z,94847.54
2018-03-24T03:43:11.025Z,94845.19
2018-03-24T03:45:38.578Z,94844.73
2018-03-24T03:48:06.144Z,94847.07
2018-03-24T03:50:33.685Z,94850.16
2018-03-24T03:53:01.282Z,94847.62
2018-03-24T03:55:28.878Z,94850.19
2018-03-24T03:57:56.472Z,94845.25
2018-03-24T04:00:24.045Z,94843.61
2018-03-24T04:02:51.601Z,94843.47
2018-03-24T04:05:19.198Z,94846.65
2018-03-24T04:07:46.754Z,94845.94
2018-03-24T04:10:14.302Z,94842.41
2018-03-24T04:12:41.919Z,94842.06
2018-03-24T04:15:09.481Z,94844.89
2018-03-24T04:17:37.094Z,94842.64
2018-03-24T04:20:04.662Z,94845.00
2018-03-24T04:22:32.211Z,94838.77
2018-03-24T04:24:59.785Z,94835.28
2018-03-24T04:27:27.393Z,94841.77
2018-03-24T04:29:54.952Z,94840.05
2018-03-24T04:32:22.514Z,94830.19
2018-03-24T04:34:50.095Z,94835.84
2018-03-24T04:37:17.712Z,94833.31
2018-03-24T04:39:45.276Z,94836.31
2018-03-24T04:42:12.879Z,94832.52
2018-03-24T04:44:40.448Z,94832.52
2018-03-24T04:47:08.014Z,94828.20
2018-03-24T04:49:35.594Z,94831.39
2018-03-24T04:52:03.138Z,94831.09
2018-03-24T04:54:30.706Z,94837.38
2018-03-24T04:56:58.274Z,94835.20
2018-03-24T04:59:25.853Z,94832.16
2018-03-24T05:01:53.406Z,94839.73
2018-03-24T05:04:21.029Z,94845.75
2018-03-24T05:06:48.580Z,94839.54
2018-03-24T05:09:16.139Z,94839.59
2018-03-24T05:11:43.712Z,94843.54
2018-03-24T05:14:11.304Z,94842.67
2018-03-24T05:16:38.911Z,94848.19
2018-03-24T05:21:38.204Z,94846.86
2018-03-24T05:24:05.825Z,94848.67
2018-03-24T05:26:33.368Z,94853.08
2018-03-24T05:29:00.968Z,94845.51
2018-03-24T05:31:28.530Z,94848.89
2018-03-24T05:33:56.117Z,94846.66
2018-03-24T05:36:23.702Z,94845.16
2018-03-24T05:38:51.261Z,94852.94
2018-03-24T05:41:18.904Z,94863.97
2018-03-24T05:43:46.541Z,94857.13
2018-03-24T05:46:14.582Z,94859.70
2018-03-24T05:48:42.245Z,94858.69
2018-03-24T05:51:09.932Z,94858.78
2018-03-24T05:53:37.487Z,94857.55
2018-03-24T05:56:05.049Z,94857.64
2018-03-24T05:58:32.635Z,94860.97
2018-03-24T06:01:00.201Z,94861.50
2018-03-24T06:03:27.783Z,94860.34
2018-03-24T06:05:55.385Z,94861.52
2018-03-24T06:08:22.957Z,94864.87
2018-03-24T06:10:50.550Z,94866.52
2018-03-24T06:13:18.119Z,94864.59
2018-03-24T06:15:45.733Z,94864.05
2018-03-24T06:18:13.284Z,94863.81
2018-03-24T06:20:40.856Z,94870.14
2018-03-24T06:23:08.453Z,94870.25
2018-03-24T06:25:36.039Z,94865.19
2018-03-24T06:28:03.603Z,94863.39
2018-03-24T06:33:31.145Z,94873.28
2018-03-24T06:35:59.146Z,94872.83
2018-03-24T06:38:26.763Z,94868.95
2018-03-24T06:40:54.327Z,94871.52
2018-03-24T06:43:22.122Z,94868.88
2018-03-24T06:45:49.779Z,94869.08
2018-03-24T06:48:17.336Z,94866.84
2018-03-24T06:50:44.911Z,94874.71
2018-03-24T06:53:12.513Z,94872.00
2018-03-24T06:55:40.053Z,94870.99
2018-03-24T06:58:07.615Z,94877.11
2018-03-24T07:00:35.254Z,94876.02
2018-03-24T07:03:02.763Z,94871.61
2018-03-24T07:05:30.333Z,94871.59
2018-03-24T07:07:57.907Z,94871.95
2018-03-24T07:10:29.218Z,94873.40
2018-03-24T07:12:56.770Z,94870.31
2018-03-24T07:15:24.391Z,94872.92
2018-03-24T07:17:51.989Z,94869.02
2018-03-24T07:20:19.607Z,94872.36
2018-03-24T07:22:47.624Z,94875.14
2018-03-24T07:25:15.230Z,94874.85
2018-03-24T07:27:42.802Z,94869.65
2018-03-24T07:30:10.423Z,94876.92
2018-03-24T07:32:37.984Z,94872.91
2018-03-24T07:35:05.622Z,94875.66
2018-03-24T07:37:33.189Z,94878.20
2018-03-24T07:40:00.752Z,94893.87
2018-03-24T07:42:28.332Z,94884.98
2018-03-24T07:44:55.922Z,94887.25
2018-03-24T07:47:23.511Z,94887.41
2018-03-24T07:49:51.134Z,94891.54
2018-03-24T07:52:23.974Z,94881.94
2018-03-24T07:55:02.055Z,94887.72
2018-03-24T07:57:36.224Z,94887.05
2018-03-24T08:00:08.031Z,94884.48
2018-03-24T08:02:40.087Z,94889.38
2018-03-24T08:05:08.209Z,94886.39
2018-03-24T08:07:35.766Z,94888.80
2018-03-24T08:10:03.326Z,94892.31
2018-03-24T08:12:31.887Z,94890.82
2018-03-24T08:14:59.491Z,94893.83
2018-03-24T08:17:27.043Z,94884.81
2018-03-24T08:19:54.651Z,94888.59
2018-03-24T08:22:24.604Z,94888.98
2018-03-24T08:24:52.184Z,94893.05
2018-03-24T08:27:19.974Z,94891.50
2018-03-24T08:29:50.517Z,94887.52
2018-03-24T08:32:18.154Z,94887.11
2018-03-24T08:34:45.731Z,94891.95
2018-03-24T08:37:13.296Z,94882.99
2018-03-24T08:39:40.845Z,94887.45
2018-03-24T08:42:08.431Z,94885.08
2018-03-24T08:44:35.994Z,94889.69
2018-03-24T08:47:03.605Z,94890.90
2018-03-24T08:49:31.312Z,94890.97
2018-03-24T08:51:58.854Z,94881.44
2018-03-24T08:54:27.812Z,94890.77
2018-03-24T09:02:35.843Z,94897.28
2018-03-24T09:05:03.397Z,94898.91
2018-03-24T09:07:30.941Z,94897.13
2018-03-24T09:09:58.528Z,94887.85
2018-03-24T09:12:26.112Z,94896.94
2018-03-24T09:14:53.727Z,94894.36
2018-03-24T09:17:21.330Z,94900.52
2018-03-24T09:19:48.914Z,94894.69
2018-03-24T09:22:16.737Z,94893.95
2018-03-24T09:24:44.364Z,94887.34
2018-03-24T09:27:12.080Z,94888.52
2018-03-24T09:29:39.680Z,94880.14
2018-03-24T09:32:07.263Z,94885.25
2018-03-24T09:34:34.967Z,94889.48
2018-03-24T09:37:02.559Z,94885.41
2018-03-24T09:39:30.131Z,94884.53
2018-03-24T09:41:57.669Z,94882.78
2018-03-24T09:44:25.468Z,94882.64
2018-03-24T09:46:53.080Z,94890.02
2018-03-24T09:49:20.762Z,94884.33
2018-03-24T09:51:48.457Z,94883.58
2018-03-24T09:54:16.019Z,94889.83
2018-03-24T09:56:43.730Z,94891.83
2018-03-24T09:59:11.534Z,94891.73
2018-03-24T10:01:39.193Z,94889.94
2018-03-24T10:04:06.844Z,94888.04
2018-03-24T10:06:34.438Z,94893.41
2018-03-24T10:09:02.076Z,94891.59
2018-03-24T10:11:29.666Z,94890.89
2018-03-24T10:13:57.303Z,94882.57
2018-03-24T10:16:24.964Z,94886.47
2018-03-24T10:18:52.565Z,94879.02
2018-03-24T10:24:30.919Z,94871.77
2018-03-24T10:26:58.802Z,94866.91
2018-03-24T10:29:26.435Z,94866.18
2018-03-24T10:31:53.994Z,94863.24
2018-03-24T10:34:21.529Z,94865.28
2018-03-24T10:36:49.101Z,94863.91
2018-03-24T10:39:16.880Z,94870.67
2018-03-24T10:41:44.518Z,94852.12
2018-03-24T10:44:12.232Z,94862.11
2018-03-24T10:46:39.858Z,94860.81
2018-03-24T10:49:07.492Z,94858.64
2018-03-24T10:51:35.356Z,94853.95
2018-03-24T10:54:03.006Z,94859.88
2018-03-24T10:56:30.594Z,94855.91
2018-03-24T10:58:58.341Z,94855.73
2018-03-24T11:01:25.967Z,94849.79
2018-03-24T11:03:54.855Z,94847.83
2018-03-24T11:06:22.461Z,94853.18
2018-03-24T11:08:50.010Z,94844.59
2018-03-24T11:11:17.642Z,94842.56
2018-03-24T11:13:45.246Z,94845.83
2018-03-24T11:16:12.820Z,94841.09
2018-03-24T11:18:40.454Z,94840.28
2018-03-24T11:21:07.998Z,94835.00
2018-03-24T11:23:35.574Z,94840.23
2018-03-24T11:26:03.140Z,94832.56
2018-03-24T11:28:30.774Z,94837.91
2018-03-24T11:30:58.379Z,94832.28
2018-03-24T11:33:25.956Z,94837.17
2018-03-24T11:35:53.591Z,94839.45
2018-03-24T11:38:21.200Z,94841.00
2018-03-24T11:40:48.782Z,94839.16
2018-03-24T11:43:16.385Z,94832.73
2018-03-24T11:45:43.964Z,94827.62
2018-03-24T11:48:11.518Z,94829.83
2018-03-24T11:50:39.091Z,94818.59
2018-03-24T11:53:06.643Z,94830.84
2018-03-24T11:55:34.211Z,94814.30
2018-03-24T11:58:01.921Z,94800.14
2018-03-24T12:00:29.558Z,94806.37
2018-03-24T12:02:57.184Z,94809.80
2018-03-24T12:05:24.761Z,94811.14
2018-03-24T12:07:52.332Z,94805.82
2018-03-24T12:10:19.903Z,94803.71
2018-03-24T12:12:47.485Z,94806.88
2018-03-24T12:15:15.094Z,94805.53
2018-03-24T12:17:42.639Z,94798.48
2018-03-24T12:20:10.211Z,94799.20
2018-03-24T12:22:38.733Z,94802.73
2018-03-24T12:25:06.294Z,94795.08
2018-03-24T12:27:33.868Z,94798.41
2018-03-24T12:30:01.438Z,94796.55
2018-03-24T12:32:29.189Z,94791.14
2018-03-24T12:34:56.790Z,94791.02
2018-03-24T12:37:24.395Z,94797.09
2018-03-24T12:39:51.993Z,94796.13
2018-03-24T12:42:19.586Z,94802.54
2018-03-24T12:44:47.208Z,94784.69
2018-03-24T12:47:14.815Z,94793.08
2018-03-24T12:49:42.424Z,94799.39
2018-03-24T12:52:10.037Z,94792.19
2018-03-24T12:54:37.626Z,94794.20
2018-03-24T12:57:05.295Z,94787.33
2018-03-24T12:59:32.906Z,94790.61
2018-03-24T13:02:00.627Z,94794.02
2018-03-24T13:04:28.968Z,94781.46
2018-03-24T13:06:56.539Z,94782.23
2018-03-24T13:09:24.167Z,94788.59
2018-03-24T13:11:52.550Z,94794.79
2018-03-24T13:14:20.152Z,94793.85
2018-03-24T13:16:47.786Z,94788.19
2018-03-24T13:19:15.415Z,94788.17
2018-03-24T13:21:42.998Z,94785.48
2018-03-24T13:24:10.647Z,94784.62
2018-03-24T13:26:38.286Z,94775.73
2018-03-24T13:29:05.883Z,94783.05
2018-03-24T13:31:33.815Z,94776.23
2018-03-24T13:34:01.551Z,94775.45
2018-03-24T13:36:29.423Z,94776.93
2018-03-24T13:38:57.011Z,94778.86
2018-03-24T13:41:24.739Z,94781.36
2018-03-24T13:43:52.493Z,94791.95
2018-03-24T13:46:20.337Z,94784.38
2018-03-24T13:48:48.027Z,94778.59
2018-03-24T13:51:15.844Z,94777.42
2018-03-24T13:53:43.903Z,94789.00
2018-03-24T13:56:11.693Z,94788.69
2018-03-24T13:58:39.326Z,94787.30
2018-03-24T14:01:07.138Z,94784.35
2018-03-24T14:03:34.737Z,94785.09
2018-03-24T14:06:02.374Z,94787.53
2018-03-24T14:08:29.996Z,94783.77
2018-03-24T14:10:57.580Z,94777.53
2018-03-24T14:13:25.222Z,94782.67
2018-03-24T14:15:52.812Z,94790.11
2018-03-24T14:18:20.465Z,94791.80
2018-03-24T14:20:48.118Z,94781.86
2018-03-24T14:23:15.804Z,94791.86
2018-03-24T14:25:43.726Z,94783.94
2018-03-24T14:28:11.384Z,94769.41
2018-03-24T14:30:38.970Z,94773.84
2018-03-24T14:33:06.732Z,94773.54
2018-03-24T14:35:34.373Z,94776.34
2018-03-24T14:38:01.973Z,94780.23
2018-03-24T14:40:29.576Z,94779.99
2018-03-24T14:42:57.185Z,94777.02
2018-03-24T14:45:24.757Z,94777.02
2018-03-24T14:47:52.385Z,94767.75
2018-03-24T14:50:20.188Z,94781.81
2018-03-24T14:52:47.765Z,94782.40
2018-03-24T14:55:15.347Z,94789.13
2018-03-24T14:57:43.139Z,94781.90
2018-03-24T15:00:10.814Z,94792.04
2018-03-24T15:02:38.405Z,94790.19
2018-03-24T15:05:06.027Z,94786.09
2018-03-24T15:07:33.623Z,94783.97
2018-03-24T15:10:01.230Z,94786.02
2018-03-24T15:12:28.986Z,94793.89
2018-03-24T15:14:56.586Z,94789.45
2018-03-24T15:17:24.198Z,94787.69
2018-03-24T15:19:51.775Z,94788.02
2018-03-24T15:22:19.376Z,94788.23
2018-03-24T15:24:46.968Z,94792.22
2018-03-24T15:27:14.606Z,94793.53
2018-03-24T15:29:54.086Z,94795.08
2018-03-24T15:32:33.194Z,94790.38
2018-03-24T15:35:12.314Z,94791.02
2018-03-24T15:37:39.878Z,94790.26
2018-03-24T15:40:07.619Z,94791.84
2018-03-24T15:42:35.324Z,94801.13
2018-03-24T15:45:03.440Z,94797.22
2018-03-24T15:47:31.044Z,94806.31
2018-03-24T15:49:58.665Z,94806.62
2018-03-24T15:52:26.263Z,94805.53
2018-03-24T15:54:54.041Z,94807.36
2018-03-24T15:57:21.691Z,94809.41
2018-03-24T15:59:49.282Z,94812.22
2018-03-24T16:02:16.869Z,94817.66
2018-03-24T16:04:44.488Z,94818.20
2018-03-24T16:07:12.077Z,94820.72
2018-03-24T16:09:39.629Z,94817.36
2018-03-24T16:12:07.216Z,94825.23
2018-03-24T16:14:34.832Z,94826.91
2018-03-24T16:17:02.404Z,94832.58
2018-03-24T16:19:30.076Z,94830.42
2018-03-24T16:21:57.881Z,94832.79
2018-03-24T16:24:25.469Z,94830.23
2018-03-24T16:26:53.068Z,94833.61
2018-03-24T16:29:20.638Z,94837.66
2018-03-24T16:31:48.314Z,94842.39
2018-03-24T16:34:15.920Z,94850.30
2018-03-24T16:36:43.477Z,94849.11
2018-03-24T16:39:11.087Z,94850.58
2018-03-24T16:41:38.694Z,94855.92
2018-03-24T16:44:06.293Z,94858.73
2018-03-24T16:46:33.838Z,94858.81
2018-03-24T16:49:01.493Z,94861.13
2018-03-24T16:51:29.059Z,94871.11
2018-03-24T16:53:56.738Z,94867.01
2018-03-24T16:56:24.542Z,94863.22
2018-03-24T16:58:52.157Z,94867.55
2018-03-24T17:01:19.710Z,94872.45
2018-03-24T17:03:47.309Z,94863.95
2018-03-24T17:06:14.869Z,94870.60
2018-03-24T17:08:42.421Z,94875.44
2018-03-24T17:11:09.990Z,94869.02
2018-03-24T17:13:37.570Z,94874.38
2018-03-24T17:16:05.138Z,94875.27
2018-03-24T17:18:32.748Z,94869.78
2018-03-24T17:21:00.328Z,94877.93
2018-03-24T17:23:27.998Z,94888.11
2018-03-24T17:25:55.602Z,94883.77
2018-03-24T17:28:23.162Z,94883.53
2018-03-24T17:30:50.732Z,94887.91
2018-03-24T17:33:18.316Z,94890.84
2018-03-24T17:35:45.884Z,94896.40
2018-03-24T17:38:13.438Z,94890.88
2018-03-24T17:40:42.071Z,94889.81
2018-03-24T17:43:09.718Z,94895.20
2018-03-24T17:45:37.441Z,94896.14
2018-03-24T17:48:05.083Z,94901.37
2018-03-24T17:50:32.648Z,94901.78
2018-03-24T17:53:00.216Z,94905.47
2018-03-24T17:55:27.924Z,94905.83
2018-03-24T17:57:55.660Z,94908.21
2018-03-24T18:00:23.253Z,94905.36
2018-03-24T18:02:50.854Z,94906.83
2018-03-24T18:05:18.951Z,94902.27
2018-03-24T18:07:46.578Z,94908.02
2018-03-24T18:10:14.180Z,94912.39
2018-03-24T18:12:41.742Z,94909.99
2018-03-24T18:15:09.301Z,94913.84
2018-03-24T18:17:36.954Z,94913.34
2018-03-24T18:20:04.533Z,94922.63
2018-03-24T18:22:32.112Z,94917.24
2018-03-24T18:24:59.720Z,94919.09
2018-03-24T18:27:27.327Z,94915.63
2018-03-24T18:29:54.903Z,94920.75
2018-03-24T18:32:22.501Z,94929.09
2018-03-24T18:34:50.074Z,94929.59
2018-03-24T18:37:17.633Z,94928.95
2018-03-24T18:39:45.214Z,94931.55
2018-03-24T18:42:12.754Z,94930.41
2018-03-24T18:44:40.342Z,94935.47
2018-03-24T18:47:07.892Z,94935.73
2018-03-24T18:49:35.474Z,94931.20
2018-03-24T18:52:03.038Z,94935.79
2018-03-24T18:54:30.592Z,94929.50
2018-03-24T18:56:58.155Z,94937.88
2018-03-24T18:59:25.753Z,94945.08
2018-03-24T19:01:53.297Z,94947.09
2018-03-24T19:04:20.847Z,94954.69
2018-03-24T19:06:48.456Z,94953.28
2018-03-24T19:09:16.000Z,94953.70
2018-03-24T19:11:43.573Z,94950.45
2018-03-24T19:14:11.180Z,94948.23
2018-03-24T19:16:38.738Z,94957.24
2018-03-24T19:19:06.316Z,94957.24
2018-03-24T19:21:33.862Z,94953.63
2018-03-24T19:24:01.425Z,94958.06
2018-03-24T19:26:29.019Z,94962.47
2018-03-24T19:28:56.589Z,94963.86
2018-03-24T19:31:24.147Z,94968.13
2018-03-24T19:33:51.729Z,94965.02
2018-03-24T19:36:19.346Z,94971.53
2018-03-24T19:38:46.977Z,94972.45
2018-03-24T19:41:14.530Z,94971.31
2018-03-24T19:43:42.115Z,94966.11
2018-03-24T19:46:09.694Z,94972.45
2018-03-24T19:48:37.611Z,94975.83
2018-03-24T19:51:06.559Z,94976.80
2018-03-24T19:53:34.375Z,94977.81
2018-03-24T19:56:01.954Z,94973.84
2018-03-24T19:58:29.566Z,94973.41
2018-03-24T20:00:57.133Z,94972.35
2018-03-24T20:03:24.731Z,94972.04
2018-03-24T20:05:52.290Z,94978.37
2018-03-24T20:08:19.891Z,94979.63
2018-03-24T20:10:47.457Z,94980.02
2018-03-24T20:13:15.018Z,94982.34
2018-03-24T20:15:42.580Z,94983.84
2018-03-24T20:18:10.114Z,94978.55
2018-03-24T20:20:37.708Z,94978.97
2018-03-24T20:23:05.246Z,94983.02
2018-03-24T20:25:32.829Z,94982.55
2018-03-24T20:28:00.423Z,94984.63
2018-03-24T20:33:18.068Z,94988.50
2018-03-24T20:35:45.630Z,94986.37
2018-03-24T20:38:13.187Z,94986.69
2018-03-24T20:40:40.746Z,94990.23
2018-03-24T20:43:08.358Z,94991.69
2018-03-24T20:45:35.930Z,94992.16
2018-03-24T20:48:03.499Z,94996.95
2018-03-24T20:50:31.111Z,94990.14
2018-03-24T20:52:58.671Z,94992.11
2018-03-24T20:55:26.256Z,94992.77
2018-03-24T20:57:53.802Z,95003.50
2018-03-24T21:00:21.405Z,95005.09
2018-03-24T21:02:49.007Z,95007.34
2018-03-24T21:05:16.884Z,95010.77
2018-03-24T21:07:44.479Z,95007.95
2018-03-24T21:10:12.026Z,95006.45
2018-03-24T21:12:39.598Z,95010.05
2018-03-24T21:15:07.164Z,95011.93
2018-03-24T21:17:34.760Z,95008.72
2018-03-24T21:20:02.321Z,95008.22
2018-03-24T21:22:29.969Z,95012.08
2018-03-24T21:24:57.604Z,95013.34
2018-03-24T21:27:25.160Z,95009.56
2018-03-24T21:29:52.773Z,95016.15
2018-03-24T21:32:20.328Z,95012.52
2018-03-24T21:34:47.886Z,95014.95
2018-03-24T21:37:15.479Z,95016.31
2018-03-24T21:39:43.022Z,95012.48
2018-03-24T21:42:10.575Z,95015.33
2018-03-24T21:44:38.236Z,95022.50
2018-03-24T21:47:05.824Z,95013.64
2018-03-24T21:49:33.404Z,95023.39
2018-03-24T21:52:00.993Z,95016.73
2018-03-24T21:54:28.555Z,95017.59
2018-03-24T21:56:56.112Z,95019.02
2018-03-24T21:59:23.701Z,95017.60
2018-03-24T22:01:56.111Z,95018.80
2018-03-24T22:04:26.391Z,95022.41
2018-03-24T22:06:53.939Z,95020.36
2018-03-24T22:09:21.522Z,95018.03
2018-03-24T22:11:49.157Z,95020.99
2018-03-24T22:14:16.723Z,95013.03
2018-03-24T22:16:44.310Z,95015.00
2018-03-24T22:19:11.878Z,95020.96
2018-03-24T22:24:31.614Z,95017.30
2018-03-24T22:26:59.204Z,95020.17
2018-03-24T22:29:26.762Z,95016.98
2018-03-24T22:31:54.351Z,95016.48
2018-03-24T22:34:21.910Z,95020.31
2018-03-24T22:36:49.487Z,95020.92
2018-03-24T22:39:17.053Z,95018.90
2018-03-24T22:41:44.655Z,95009.36
2018-03-24T22:44:12.230Z,95007.53
2018-03-24T22:46:39.859Z,95006.22
2018-03-24T22:49:07.407Z,95001.48
2018-03-24T22:51:35.005Z,95004.67
2018-03-24T22:54:02.563Z,95002.36
2018-03-24T22:56:30.192Z,95001.38
2018-03-24T22:58:57.799Z,95003.00
2018-03-24T23:01:25.357Z,94999.97
2018-03-24T23:03:54.206Z,94999.13
2018-03-24T23:06:21.763Z,95005.80
2018-03-24T23:08:49.343Z,95004.81
2018-03-24T23:11:16.958Z,95012.84
2018-03-24T23:13:44.522Z,95016.13
2018-03-24T23:16:12.102Z,95018.39
2018-03-24T23:18:39.652Z,95014.27
2018-03-24T23:21:07.249Z,95008.23
2018-03-24T23:23:34.883Z,95009.33
2018-03-24T23:26:02.496Z,95008.65
2018-03-24T23:28:30.114Z,95005.48
2018-03-24T23:30:57.659Z,95009.17
2018-03-24T23:33:25.223Z,95007.61
2018-03-24T23:35:52.801Z,95003.98
2018-03-24T23:38:20.386Z,95004.91
2018-03-24T23:40:48.028Z,94997.66
2018-03-24T23:43:15.583Z,94995.37
2018-03-24T23:45:43.196Z,94994.57
2018-03-24T23:48:10.791Z,94996.08
2018-03-24T23:50:38.353Z,95002.57
2018-03-24T23:53:05.966Z,94997.13
2018-03-24T23:55:33.563Z,95000.67
2018-03-24T23:58:01.149Z,95003.08
